Szafir — 5BFC3 — position and weather

sailwx.info

Track history (hours):
 
Tides and Currents Weather Stations Pressure Air Temp Water Temp Dewpoint Dewpoint Depression Visibility Wind Speed Wind Dir Waves Ship Positions

Szafir

Last reported at 2016-Dec-02 10:33 UTC. Time now 2016-Dec-02 20:14 UTC.
Position N 27°40' W 015°14'.

Length 113 m; draft 8.2 m.

Type: Cargo ship. MMSI: 209366000.

Date/timePositionNaut miles runAvg speedWind from/ knotsBaromVisibWave heightAir tempDewpointWater temp
2016-Dec-02 10:33N 27°40' W 015°14'1312.9
2016-Dec-02 09:33N 27°51' W 015°08'1212.1
2016-Dec-02 08:33N 28°02' W 015°03'1212.4
2016-Dec-02 07:33N 28°14' W 014°58'1312.6
2016-Dec-02 06:33N 28°26' W 014°53'1312.7
2016-Dec-02 05:33N 28°38' W 014°49'1512.9
2016-Dec-02 04:21N 28°52' W 014°41'1012.5
2016-Dec-02 03:31N 29°02' W 014°37'1111.5
2016-Dec-02 02:33N 29°12' W 014°32'1111.4
2016-Dec-02 01:33N 29°23' W 014°27'1111.5
2016-Dec-02 00:33N 29°33' W 014°22'1312.6
2016-Dec-01 23:34N 29°45' W 014°17'1312.9
2016-Dec-01 22:33N 29°57' W 014°11'1313.1
2016-Dec-01 21:34N 30°09' W 014°06'1613.0
2016-Dec-01 20:21N 30°24' W 014°02'53011.3
2016-Nov-29 21:28N 38°39' W 010°11'1112.6
2016-Nov-29 20:33N 38°51' W 010°12'1313.1
2016-Nov-29 19:33N 39°04' W 010°12'  
2016-Nov-27 09:32N 49°46' W 003°42'1313.8
2016-Nov-27 08:34N 49°51' W 003°23'1312.9
2016-Nov-27 07:33N 49°57' W 003°05'1212.0
2016-Nov-27 06:33N 50°01' W 002°48'3811.8
2016-Nov-27 03:23N 50°12' W 001°51'1113.6
2016-Nov-27 02:32N 50°15' W 001°34'4613.9
2016-Nov-26 23:11N 50°28' W 000°24'914.4
2016-Nov-26 22:34N 50°30' W 000°11'1413.6
2016-Nov-26 21:34N 50°34' E 000°10'4312.6
2016-Nov-26 18:07N 50°55' E 001°09'814.7
2016-Nov-26 17:34N 51°00' E 001°20'1515.5
2016-Nov-26 16:34N 51°10' E 001°39'1414.0
2016-Nov-26 15:33N 51°22' E 001°51'1312.8
2016-Nov-26 14:34N 51°32' E 002°03'1712.0
2016-Nov-26 13:07N 51°45' E 002°22'611.7
2016-Nov-26 12:33N 51°50' E 002°29'1511.6
2016-Nov-26 11:14N 52°02' E 002°45'912.1
2016-Nov-26 10:30N 52°08' E 002°55'1212.9
2016-Nov-26 09:33N 52°18' E 003°07'1413.7
2016-Nov-26 08:32N 52°29' E 003°21'1414.0
2016-Nov-26 07:32N 52°40' E 003°35'1414.2
2016-Nov-26 06:32N 52°51' E 003°49'1413.8
2016-Nov-26 05:33N 53°01' E 004°04'1313.2
2016-Nov-26 04:33N 53°10' E 004°21'5012.3
2016-Nov-26 00:31N 53°56' E 004°53'1212.8
2016-Nov-25 23:33N 54°07' E 005°01'29412.2
2016-Nov-24 23:33N 57°49' E 010°44'1211.9
2016-Nov-24 22:33N 57°41' E 011°00'1212.4
2016-Nov-24 21:33N 57°33' E 011°17'1312.9
2016-Nov-24 20:33N 57°22' E 011°30'1312.8
2016-Nov-24 19:33N 57°10' E 011°38'1312.8
2016-Nov-24 18:33N 56°58' E 011°46'9810.7
2016-Nov-24 09:20N 55°22' E 011°02'911.2
2016-Nov-24 08:33N 55°14' E 011°06'1111.3
2016-Nov-24 07:33N 55°03' E 011°02'1111.2
2016-Nov-24 06:33N 54°53' E 010°54'1111.2
2016-Nov-24 05:33N 54°42' E 010°55'1312.6
2016-Nov-24 04:34N 54°35' E 011°14'1312.9
2016-Nov-24 03:33N 54°30' E 011°34'1212.4
2016-Nov-24 02:33N 54°27' E 011°54'1111.0
2016-Nov-24 01:33N 54°31' E 012°12'1212.1
2016-Nov-24 00:33N 54°40' E 012°25'1312.8
2016-Nov-23 23:32N 54°47' E 012°44'2512.7
2016-Nov-23 21:33N 54°56' E 013°25'1312.9
2016-Nov-23 20:33N 55°00' E 013°46'1212.4
2016-Nov-23 19:33N 55°06' E 014°06'1312.7
2016-Nov-23 18:33N 55°16' E 014°20'1312.7
2016-Nov-23 17:34N 55°25' E 014°34'1312.5
2016-Nov-23 16:32N 55°32' E 014°54'1212.6
2016-Nov-23 15:33N 55°38' E 015°13'1512.7
2016-Nov-23 14:23N 55°45' E 015°36'179 9.9
2016-Nov-22 20:18N 58°37' E 017°15'912.3
2016-Nov-22 19:33N 58°37' E 016°57'2211.0
2016-Nov-22 17:33N 58°37' E 016°15'0 0.3
2016-Nov-22 16:32N 58°37' E 016°15'0 0.0
2016-Nov-22 15:32N 58°37' E 016°15'0 0.0
2016-Nov-22 14:32N 58°37' E 016°15'0 0.0
2016-Nov-22 13:32N 58°37' E 016°15'  
Track history (hours):
 
Tides and Currents Weather Stations Pressure Air Temp Water Temp Dewpoint Dewpoint Depression Visibility Wind Speed Wind Dir Waves Ship Positions

Szafir

Last reported at 2016-Dec-02 10:33 UTC. Time now 2016-Dec-02 20:14 UTC.
Position N 27°40' W 015°14'.

Length 113 m; draft 8.2 m.

Type: Cargo ship. MMSI: 209366000.

Date/timePositionNaut miles runAvg speedWind from/ knotsBaromVisibWave heightAir tempDewpointWater temp
2016-Dec-02 10:33N 27°40' W 015°14'1312.9
2016-Dec-02 09:33N 27°51' W 015°08'1212.1
2016-Dec-02 08:33N 28°02' W 015°03'1212.4
2016-Dec-02 07:33N 28°14' W 014°58'1312.6
2016-Dec-02 06:33N 28°26' W 014°53'1312.7
2016-Dec-02 05:33N 28°38' W 014°49'1512.9
2016-Dec-02 04:21N 28°52' W 014°41'1012.5
2016-Dec-02 03:31N 29°02' W 014°37'1111.5
2016-Dec-02 02:33N 29°12' W 014°32'1111.4
2016-Dec-02 01:33N 29°23' W 014°27'1111.5
2016-Dec-02 00:33N 29°33' W 014°22'1312.6
2016-Dec-01 23:34N 29°45' W 014°17'1312.9
2016-Dec-01 22:33N 29°57' W 014°11'1313.1
2016-Dec-01 21:34N 30°09' W 014°06'1613.0
2016-Dec-01 20:21N 30°24' W 014°02'53011.3
2016-Nov-29 21:28N 38°39' W 010°11'1112.6
2016-Nov-29 20:33N 38°51' W 010°12'1313.1
2016-Nov-29 19:33N 39°04' W 010°12'  
2016-Nov-27 09:32N 49°46' W 003°42'1313.8
2016-Nov-27 08:34N 49°51' W 003°23'1312.9
2016-Nov-27 07:33N 49°57' W 003°05'1212.0
2016-Nov-27 06:33N 50°01' W 002°48'3811.8
2016-Nov-27 03:23N 50°12' W 001°51'1113.6
2016-Nov-27 02:32N 50°15' W 001°34'4613.9
2016-Nov-26 23:11N 50°28' W 000°24'914.4
2016-Nov-26 22:34N 50°30' W 000°11'1413.6
2016-Nov-26 21:34N 50°34' E 000°10'4312.6
2016-Nov-26 18:07N 50°55' E 001°09'814.7
2016-Nov-26 17:34N 51°00' E 001°20'1515.5
2016-Nov-26 16:34N 51°10' E 001°39'1414.0
2016-Nov-26 15:33N 51°22' E 001°51'1312.8
2016-Nov-26 14:34N 51°32' E 002°03'1712.0
2016-Nov-26 13:07N 51°45' E 002°22'611.7
2016-Nov-26 12:33N 51°50' E 002°29'1511.6
2016-Nov-26 11:14N 52°02' E 002°45'912.1
2016-Nov-26 10:30N 52°08' E 002°55'1212.9
2016-Nov-26 09:33N 52°18' E 003°07'1413.7
2016-Nov-26 08:32N 52°29' E 003°21'1414.0
2016-Nov-26 07:32N 52°40' E 003°35'1414.2
2016-Nov-26 06:32N 52°51' E 003°49'1413.8
2016-Nov-26 05:33N 53°01' E 004°04'1313.2
2016-Nov-26 04:33N 53°10' E 004°21'5012.3
2016-Nov-26 00:31N 53°56' E 004°53'1212.8
2016-Nov-25 23:33N 54°07' E 005°01'29412.2
2016-Nov-24 23:33N 57°49' E 010°44'1211.9
2016-Nov-24 22:33N 57°41' E 011°00'1212.4
2016-Nov-24 21:33N 57°33' E 011°17'1312.9
2016-Nov-24 20:33N 57°22' E 011°30'1312.8
2016-Nov-24 19:33N 57°10' E 011°38'1312.8
2016-Nov-24 18:33N 56°58' E 011°46'9810.7
2016-Nov-24 09:20N 55°22' E 011°02'911.2
2016-Nov-24 08:33N 55°14' E 011°06'1111.3
2016-Nov-24 07:33N 55°03' E 011°02'1111.2
2016-Nov-24 06:33N 54°53' E 010°54'1111.2
2016-Nov-24 05:33N 54°42' E 010°55'1312.6
2016-Nov-24 04:34N 54°35' E 011°14'1312.9
2016-Nov-24 03:33N 54°30' E 011°34'1212.4
2016-Nov-24 02:33N 54°27' E 011°54'1111.0
2016-Nov-24 01:33N 54°31' E 012°12'1212.1
2016-Nov-24 00:33N 54°40' E 012°25'1312.8
2016-Nov-23 23:32N 54°47' E 012°44'2512.7
2016-Nov-23 21:33N 54°56' E 013°25'1312.9
2016-Nov-23 20:33N 55°00' E 013°46'1212.4
2016-Nov-23 19:33N 55°06' E 014°06'1312.7
2016-Nov-23 18:33N 55°16' E 014°20'1312.7
2016-Nov-23 17:34N 55°25' E 014°34'1312.5
2016-Nov-23 16:32N 55°32' E 014°54'1212.6
2016-Nov-23 15:33N 55°38' E 015°13'1512.7
2016-Nov-23 14:23N 55°45' E 015°36'179 9.9
2016-Nov-22 20:18N 58°37' E 017°15'912.3
2016-Nov-22 19:33N 58°37' E 016°57'2211.0
2016-Nov-22 17:33N 58°37' E 016°15'0 0.3
2016-Nov-22 16:32N 58°37' E 016°15'0 0.0
2016-Nov-22 15:32N 58°37' E 016°15'0 0.0
2016-Nov-22 14:32N 58°37' E 016°15'0 0.0
2016-Nov-22 13:32N 58°37' E 016°15'  

Dump ship's entire track history